Time;durP1;ratioP1;P1;durP2;ratioP2;P2;SDS_P1;SDS_P2;PMS_P1;PMS_P2;Temp;Humidity;BMP_temperature;BMP_pressure;BME280_temperature;BME280_humidity;BME280_pressure;Samples;Min_cycle;Max_cycle;Signal;HPM_P1;HPM_P2
2022/06/24 00:02:17;;;;;;;5.20;2.60;;;19.50;99.90;;;;;;4991984;28;20214;-66
2022/06/24 00:04:51;;;;;;;2.83;1.93;;;19.40;99.90;;;;;;4998125;28;20481;-66
2022/06/24 00:07:17;;;;;;;3.60;2.27;;;19.30;99.90;;;;;;4995276;28;20187;-66
2022/06/24 00:09:44;;;;;;;3.90;1.93;;;19.20;99.90;;;;;;4990572;28;20450;-66
2022/06/24 00:12:18;;;;;;;2.30;2.03;;;19.20;99.90;;;;;;4990050;28;20453;-66
2022/06/24 00:14:55;;;;;;;6.03;2.00;;;19.00;99.90;;;;;;4990524;28;20513;-66
2022/06/24 00:17:20;;;;;;;3.40;2.00;;;18.90;99.90;;;;;;4988743;28;20798;-66
2022/06/24 00:20:04;;;;;;;3.10;2.47;;;18.70;99.90;;;;;;4988840;28;20478;-66
2022/06/24 00:22:31;;;;;;;3.97;2.50;;;18.70;99.90;;;;;;4990509;28;20217;-65
2022/06/24 00:25:14;;;;;;;3.30;2.57;;;18.80;99.90;;;;;;4990092;28;20470;-66
2022/06/24 00:27:42;;;;;;;4.07;2.80;;;18.80;99.90;;;;;;4991150;28;20825;-65
2022/06/24 00:30:15;;;;;;;7.63;3.90;;;18.80;99.90;;;;;;4990156;28;20968;-66
2022/06/24 00:32:42;;;;;;;5.47;2.60;;;18.80;99.90;;;;;;4989438;28;20431;-66
2022/06/24 00:35:14;;;;;;;2.70;2.50;;;18.80;99.90;;;;;;4988412;28;20498;-66
2022/06/24 00:37:42;;;;;;;3.33;2.30;;;18.80;99.90;;;;;;4986988;28;20501;-65
2022/06/24 00:40:11;;;;;;;4.00;2.47;;;18.90;99.90;;;;;;4989174;28;20478;-66
2022/06/24 00:42:42;;;;;;;2.90;2.20;;;19.00;99.90;;;;;;4989740;28;20442;-66
2022/06/24 00:45:15;;;;;;;6.47;3.20;;;18.90;99.90;;;;;;5001391;23;20493;-63
2022/06/24 00:47:42;;;;;;;5.40;2.60;;;19.00;99.90;;;;;;4985017;28;20449;-66
2022/06/24 00:50:31;;;;;;;3.80;2.57;;;18.90;99.90;;;;;;4986914;28;20557;-66
2022/06/24 00:52:59;;;;;;;8.03;2.50;;;18.80;99.90;;;;;;4988956;28;20989;-67
2022/06/24 00:55:34;;;;;;;3.00;2.70;;;18.80;99.90;;;;;;4991322;28;20470;-65
2022/06/24 00:58:00;;;;;;;4.00;2.70;;;18.70;99.90;;;;;;4969473;28;20498;-66
2022/06/24 01:00:28;;;;;;;3.47;2.67;;;18.70;99.90;;;;;;4970395;28;20439;-66
2022/06/24 01:03:02;;;;;;;5.23;2.50;;;18.70;99.90;;;;;;4968195;28;20450;-66
2022/06/24 01:05:29;;;;;;;3.47;2.90;;;18.60;99.90;;;;;;4966511;28;20459;-66
2022/06/24 01:07:55;;;;;;;4.60;3.60;;;18.50;99.90;;;;;;4969855;28;20448;-66
2022/06/24 01:10:21;;;;;;;4.50;4.10;;;18.50;99.90;;;;;;4969718;28;20459;-66
2022/06/24 01:12:47;;;;;;;11.73;3.57;;;18.40;99.90;;;;;;4969667;28;20490;-66
2022/06/24 01:15:13;;;;;;;4.40;4.10;;;18.40;99.90;;;;;;4968793;28;20459;-66
2022/06/24 01:17:39;;;;;;;8.20;3.87;;;18.40;99.90;;;;;;4970454;28;20215;-66
2022/06/24 01:20:09;;;;;;;4.20;3.87;;;18.40;99.90;;;;;;4969059;28;20176;-66
2022/06/24 01:22:35;;;;;;;3.87;3.53;;;18.30;99.90;;;;;;4969590;28;20525;-66
2022/06/24 01:25:00;;;;;;;6.27;3.80;;;18.30;99.90;;;;;;4971395;28;20443;-66
2022/06/24 01:27:26;;;;;;;6.40;3.80;;;18.20;99.90;;;;;;4975394;28;20493;-66
2022/06/24 01:29:52;;;;;;;5.97;4.30;;;18.30;99.90;;;;;;4973308;28;20189;-66
2022/06/24 01:32:17;;;;;;;5.43;4.73;;;18.50;99.90;;;;;;4973309;28;20223;-66
2022/06/24 01:34:43;;;;;;;5.27;4.17;;;18.30;99.90;;;;;;4973562;28;20184;-64
2022/06/24 01:37:09;;;;;;;5.13;4.43;;;18.30;99.90;;;;;;4973265;28;20211;-65
2022/06/24 01:39:34;;;;;;;5.03;3.70;;;18.20;99.90;;;;;;4973439;28;20187;-64
2022/06/24 01:42:00;;;;;;;4.13;3.23;;;18.10;99.90;;;;;;4972626;28;20181;-66
2022/06/24 01:44:28;;;;;;;3.70;3.40;;;18.10;99.90;;;;;;4973159;28;20547;-64
2022/06/24 01:46:54;;;;;;;4.50;3.27;;;18.10;99.90;;;;;;4972553;28;20336;-64
2022/06/24 01:49:20;;;;;;;5.67;3.80;;;18.10;99.90;;;;;;4972828;28;20551;-65
2022/06/24 01:51:48;;;;;;;5.53;3.53;;;18.10;99.90;;;;;;4974036;28;20624;-64
2022/06/24 01:54:14;;;;;;;4.00;3.60;;;18.10;99.90;;;;;;4971821;28;20534;-65
2022/06/24 01:56:40;;;;;;;4.73;3.10;;;18.10;99.90;;;;;;4972956;28;20518;-65
2022/06/24 01:59:05;;;;;;;7.53;3.17;;;18.00;99.90;;;;;;4972425;28;20665;-64
2022/06/24 02:01:31;;;;;;;6.47;3.60;;;18.00;99.90;;;;;;4972845;28;20184;-64
2022/06/24 02:03:56;;;;;;;4.97;3.17;;;18.00;99.90;;;;;;4972650;28;20556;-64
2022/06/24 02:06:22;;;;;;;4.63;3.30;;;18.10;99.90;;;;;;4973063;28;20279;-66
2022/06/24 02:08:48;;;;;;;3.93;3.50;;;18.20;99.90;;;;;;4969865;28;20180;-66
2022/06/24 02:14:01;;;;;;;5.70;3.67;;;18.40;99.90;;;;;;4983986;28;20522;-66
2022/06/24 02:16:27;;;;;;;4.47;3.80;;;18.40;99.90;;;;;;4972963;28;20475;-66
2022/06/24 02:18:54;;;;;;;4.40;3.17;;;18.40;99.90;;;;;;4971445;28;20452;-66
2022/06/24 02:21:23;;;;;;;4.90;2.73;;;18.40;99.90;;;;;;4972872;28;20271;-66
2022/06/24 02:23:49;;;;;;;4.40;2.60;;;18.30;99.90;;;;;;4971905;28;20450;-66
2022/06/24 02:26:15;;;;;;;7.63;5.00;;;18.30;99.90;;;;;;4971105;28;20471;-66
2022/06/24 02:28:41;;;;;;;5.17;3.60;;;18.30;99.90;;;;;;4971417;28;20451;-66
2022/06/24 02:31:06;;;;;;;4.10;3.60;;;18.40;99.90;;;;;;4973716;28;20833;-66
2022/06/24 02:33:32;;;;;;;5.93;3.87;;;18.50;99.90;;;;;;4972034;28;20251;-67
2022/06/24 02:35:58;;;;;;;3.63;2.80;;;18.40;99.90;;;;;;4972325;28;20197;-67
2022/06/24 02:38:24;;;;;;;5.43;3.23;;;18.40;99.90;;;;;;4980438;28;20514;-65
2022/06/24 02:40:51;;;;;;;5.07;3.57;;;18.40;99.90;;;;;;4980931;28;20195;-65
2022/06/24 02:43:19;;;;;;;4.63;2.77;;;18.30;99.90;;;;;;4985168;28;20187;-65
2022/06/24 02:45:54;;;;;;;11.13;3.50;;;18.40;99.90;;;;;;4983265;28;20876;-65
2022/06/24 02:48:21;;;;;;;17.17;3.67;;;18.40;99.90;;;;;;4971380;28;20523;-65
2022/06/24 02:50:52;;;;;;;4.77;3.57;;;18.30;99.90;;;;;;4971236;28;20534;-66
2022/06/24 02:53:19;;;;;;;3.50;3.00;;;18.20;99.90;;;;;;4971212;28;20447;-65
2022/06/24 02:55:47;;;;;;;6.00;3.50;;;18.20;99.90;;;;;;4972771;28;20462;-64
2022/06/24 02:58:13;;;;;;;4.27;3.37;;;18.00;99.90;;;;;;4967422;28;20451;-69
2022/06/24 03:00:41;;;;;;;3.07;2.83;;;17.90;99.90;;;;;;4971805;28;20833;-65
2022/06/24 03:03:07;;;;;;;5.00;3.27;;;17.90;99.90;;;;;;4971091;28;20447;-64
2022/06/24 03:05:32;;;;;;;4.60;3.30;;;17.90;99.90;;;;;;4971997;28;21038;-65
2022/06/24 03:07:58;;;;;;;4.17;3.77;;;17.90;99.90;;;;;;4969368;28;20200;-64
2022/06/24 03:10:23;;;;;;;5.13;3.27;;;18.00;99.90;;;;;;4972051;28;20201;-64
2022/06/24 03:12:49;;;;;;;4.70;3.27;;;18.00;99.90;;;;;;4971133;28;20215;-65
2022/06/24 03:15:15;;;;;;;4.07;3.27;;;18.00;99.90;;;;;;4970953;28;20192;-65
2022/06/24 03:17:41;;;;;;;5.20;4.17;;;18.00;99.90;;;;;;4970870;28;20192;-65
2022/06/24 03:20:08;;;;;;;4.80;3.73;;;18.00;99.90;;;;;;4972629;28;20438;-65
2022/06/24 03:22:33;;;;;;;7.93;4.33;;;18.00;99.90;;;;;;4970277;28;20574;-65
2022/06/24 03:24:59;;;;;;;11.13;4.20;;;18.00;99.90;;;;;;4970694;28;20440;-65
2022/06/24 03:27:25;;;;;;;6.47;3.90;;;18.00;99.90;;;;;;4969636;28;20180;-65
2022/06/24 03:29:50;;;;;;;5.73;3.60;;;18.00;99.90;;;;;;4970673;28;20176;-64
2022/06/24 03:32:16;;;;;;;6.47;3.00;;;18.00;99.90;;;;;;4970103;28;20764;-65
2022/06/24 03:34:42;;;;;;;4.63;3.27;;;18.00;99.90;;;;;;4972074;28;20180;-65
2022/06/24 03:37:07;;;;;;;6.97;3.80;;;18.00;99.90;;;;;;4970687;28;20200;-65
2022/06/24 03:39:33;;;;;;;7.60;3.33;;;18.00;99.90;;;;;;4970306;28;20551;-65
2022/06/24 03:41:58;;;;;;;4.23;3.80;;;18.00;99.90;;;;;;4970442;28;20184;-64
2022/06/24 03:44:24;;;;;;;7.07;3.50;;;18.00;99.90;;;;;;4971502;28;20176;-65
2022/06/24 03:46:49;;;;;;;4.70;3.37;;;18.00;99.90;;;;;;4970387;28;20234;-65
2022/06/24 03:49:15;;;;;;;5.27;3.60;;;18.00;99.90;;;;;;4970563;28;20196;-65
2022/06/24 03:51:41;;;;;;;5.27;3.10;;;18.00;99.90;;;;;;4971967;28;20212;-65
2022/06/24 03:54:07;;;;;;;6.37;3.50;;;18.00;99.90;;;;;;4970095;28;20192;-65
2022/06/24 03:56:32;;;;;;;4.37;3.10;;;18.10;99.90;;;;;;4967812;28;20499;-64
2022/06/24 03:58:58;;;;;;;7.83;4.33;;;18.10;99.90;;;;;;4970213;28;20251;-65
2022/06/24 04:01:23;;;;;;;4.70;3.60;;;18.00;99.90;;;;;;4971203;28;20537;-65
2022/06/24 04:03:49;;;;;;;7.60;3.83;;;18.00;99.90;;;;;;4974235;28;20187;-64
2022/06/24 04:06:14;;;;;;;5.37;3.73;;;17.90;99.90;;;;;;4983295;28;20207;-65
2022/06/24 04:08:40;;;;;;;4.00;3.00;;;17.90;99.90;;;;;;4975082;28;20227;-64
2022/06/24 04:11:14;;;;;;;3.80;3.20;;;18.00;99.90;;;;;;4970776;28;20649;-65
2022/06/24 04:13:40;;;;;;;5.43;3.53;;;17.90;99.90;;;;;;4965563;28;22010;-65
2022/06/24 04:16:06;;;;;;;4.57;3.10;;;18.00;99.90;;;;;;4972498;28;20984;-65
2022/06/24 04:18:32;;;;;;;4.17;3.50;;;18.20;99.90;;;;;;4970528;28;20450;-65
2022/06/24 04:20:58;;;;;;;8.00;3.90;;;18.20;99.90;;;;;;4971081;28;20440;-65
2022/06/24 04:23:25;;;;;;;5.50;3.60;;;18.40;99.90;;;;;;4973910;28;20781;-67
2022/06/24 04:25:50;;;;;;;6.57;4.70;;;18.50;99.90;;;;;;4971277;28;20461;-66
2022/06/24 04:28:16;;;;;;;6.30;3.43;;;18.60;99.90;;;;;;4970219;28;20948;-66
2022/06/24 04:30:42;;;;;;;4.90;3.70;;;18.70;99.90;;;;;;4968372;28;20467;-66
2022/06/24 04:33:08;;;;;;;5.67;3.10;;;18.70;99.90;;;;;;4971024;28;21718;-65
2022/06/24 04:35:34;;;;;;;10.13;4.00;;;18.80;99.90;;;;;;4969921;28;20466;-65
2022/06/24 04:37:59;;;;;;;6.53;3.20;;;18.90;99.90;;;;;;4968153;28;20555;-66
2022/06/24 04:40:25;;;;;;;3.87;3.43;;;19.10;99.90;;;;;;4969276;28;20447;-66
2022/06/24 04:42:51;;;;;;;4.83;3.40;;;19.10;99.90;;;;;;4971267;28;20242;-66
2022/06/24 04:45:17;;;;;;;6.30;3.10;;;19.20;99.90;;;;;;4969516;28;20474;-66
2022/06/24 04:47:42;;;;;;;5.30;3.47;;;19.30;99.90;;;;;;4970678;28;20195;-66
2022/06/24 04:50:09;;;;;;;10.60;3.97;;;19.40;99.90;;;;;;4969487;28;20188;-65
2022/06/24 04:52:36;;;;;;;4.00;3.60;;;19.40;99.90;;;;;;4971370;28;20541;-65
2022/06/24 04:55:02;;;;;;;5.67;4.23;;;19.40;99.90;;;;;;4967351;28;20435;-65
2022/06/24 04:57:28;;;;;;;3.73;3.43;;;19.60;99.90;;;;;;4970123;28;20439;-65
2022/06/24 04:59:53;;;;;;;3.90;3.60;;;19.70;99.90;;;;;;4971156;28;20440;-65
2022/06/24 05:02:19;;;;;;;6.30;3.73;;;19.60;99.90;;;;;;4974128;28;20292;-65
2022/06/24 05:04:44;;;;;;;3.43;2.80;;;19.70;99.90;;;;;;4974878;28;20184;-65
2022/06/24 05:07:10;;;;;;;7.10;3.63;;;20.10;99.90;;;;;;4972589;28;20323;-66
2022/06/24 05:09:35;;;;;;;7.10;3.60;;;20.00;99.90;;;;;;4970432;28;20690;-66
2022/06/24 05:12:01;;;;;;;8.80;3.27;;;20.20;99.90;;;;;;4973198;28;20215;-66
2022/06/24 05:14:28;;;;;;;4.97;4.30;;;20.40;99.90;;;;;;4980839;28;20187;-66
2022/06/24 05:16:54;;;;;;;7.37;3.73;;;20.40;99.90;;;;;;4982330;28;20287;-66
2022/06/24 05:19:19;;;;;;;4.57;3.70;;;20.50;99.90;;;;;;4984630;28;20530;-66
2022/06/24 05:21:45;;;;;;;9.50;3.37;;;20.60;99.90;;;;;;4988912;28;20237;-67
2022/06/24 05:24:10;;;;;;;8.17;4.67;;;20.80;99.90;;;;;;4980995;28;20615;-66
2022/06/24 05:26:36;;;;;;;6.17;3.43;;;20.80;99.90;;;;;;4984976;28;20206;-67
2022/06/24 05:29:01;;;;;;;9.70;4.50;;;20.90;99.90;;;;;;4989402;28;20190;-66
2022/06/24 05:31:27;;;;;;;6.53;3.77;;;20.90;99.90;;;;;;4974139;28;20208;-67
2022/06/24 05:33:52;;;;;;;8.33;3.70;;;21.10;99.90;;;;;;4978740;28;20646;-66
2022/06/24 05:36:18;;;;;;;6.90;3.00;;;21.20;99.90;;;;;;4982619;28;20204;-67
2022/06/24 05:38:46;;;;;;;10.83;3.73;;;21.30;99.90;;;;;;4980961;28;20188;-67
2022/06/24 05:41:12;;;;;;;5.60;3.03;;;21.30;99.90;;;;;;4984224;28;20430;-67
2022/06/24 05:43:37;;;;;;;5.53;3.87;;;21.30;99.90;;;;;;4977613;28;20521;-67
2022/06/24 05:46:03;;;;;;;7.10;4.33;;;21.50;99.90;;;;;;4980264;28;20216;-67
2022/06/24 05:48:30;;;;;;;6.17;2.93;;;21.60;99.90;;;;;;4984550;28;20191;-66
2022/06/24 05:50:56;;;;;;;4.57;3.33;;;21.80;99.90;;;;;;4976817;28;20212;-66
2022/06/24 05:56:06;;;;;;;5.60;3.20;;;21.70;99.90;;;;;;4972261;28;20584;-67
2022/06/24 05:58:31;;;;;;;6.77;3.10;;;21.90;99.90;;;;;;4973429;28;20447;-67
2022/06/24 06:00:57;;;;;;;4.63;3.10;;;21.90;99.90;;;;;;4971096;28;20188;-67
2022/06/24 06:03:24;;;;;;;6.97;3.67;;;22.00;99.90;;;;;;4973592;28;20180;-67
2022/06/24 06:05:50;;;;;;;7.03;3.23;;;22.00;99.90;;;;;;4973908;28;20204;-67
2022/06/24 06:08:16;;;;;;;4.00;3.37;;;21.80;99.90;;;;;;4971997;28;20593;-67
2022/06/24 06:10:43;;;;;;;5.10;3.53;;;21.60;99.90;;;;;;4974784;28;20211;-67
2022/06/24 06:13:10;;;;;;;5.93;4.00;;;21.60;99.90;;;;;;4985287;28;20446;-68
2022/06/24 06:15:36;;;;;;;7.10;4.17;;;21.90;99.90;;;;;;4979650;28;22301;-67
2022/06/24 06:18:02;;;;;;;4.03;3.07;;;21.80;99.90;;;;;;4972457;28;20475;-67
2022/06/24 06:20:27;;;;;;;6.73;3.20;;;21.80;99.90;;;;;;4974559;28;20270;-67
2022/06/24 06:22:53;;;;;;;4.37;3.80;;;21.80;99.90;;;;;;4972265;28;20184;-67
2022/06/24 06:25:19;;;;;;;5.27;3.20;;;21.90;99.90;;;;;;4970014;28;20211;-67
2022/06/24 06:27:44;;;;;;;5.37;3.53;;;22.00;99.90;;;;;;4973611;28;20199;-67
2022/06/24 06:30:11;;;;;;;4.67;2.97;;;21.90;99.90;;;;;;4981665;28;20261;-67
2022/06/24 06:32:36;;;;;;;7.87;4.10;;;21.90;99.90;;;;;;4984831;28;20171;-67
2022/06/24 06:35:03;;;;;;;6.00;3.90;;;22.00;99.90;;;;;;4979409;28;20436;-67
2022/06/24 06:37:29;;;;;;;5.07;3.40;;;22.30;99.90;;;;;;4982249;28;20181;-67
2022/06/24 06:39:55;;;;;;;4.40;3.30;;;22.50;99.90;;;;;;4980581;28;20522;-67
2022/06/24 06:42:21;;;;;;;4.07;3.47;;;22.60;99.90;;;;;;4984393;28;20543;-66
2022/06/24 06:44:47;;;;;;;5.73;3.20;;;22.80;99.90;;;;;;4975763;28;20482;-67
2022/06/24 06:47:12;;;;;;;5.80;2.90;;;23.00;99.90;;;;;;4982722;28;20211;-65
2022/06/24 06:49:38;;;;;;;8.70;3.80;;;23.40;99.90;;;;;;4981974;28;20195;-65
2022/06/24 06:52:04;;;;;;;7.13;3.70;;;23.60;99.90;;;;;;4979237;28;20203;-65
2022/06/24 06:54:30;;;;;;;3.90;3.17;;;23.70;99.90;;;;;;4978906;28;20226;-66
2022/06/24 06:56:59;;;;;;;4.10;3.33;;;24.30;99.90;;;;;;4970674;28;20677;-65
2022/06/24 06:59:24;;;;;;;5.40;3.33;;;23.70;99.90;;;;;;4973857;28;20415;-67
2022/06/24 07:01:50;;;;;;;4.73;4.00;;;23.70;99.90;;;;;;4963455;28;20443;-70
2022/06/24 07:04:15;;;;;;;3.23;2.70;;;23.80;99.90;;;;;;4951483;28;20194;-70
2022/06/24 07:06:41;;;;;;;4.73;3.27;;;23.70;99.90;;;;;;4975840;28;20579;-67
2022/06/24 07:09:07;;;;;;;8.90;3.40;;;23.60;99.90;;;;;;4970390;28;20180;-65
2022/06/24 07:11:32;;;;;;;6.73;3.17;;;23.80;99.90;;;;;;4968406;28;20377;-66
2022/06/24 07:13:58;;;;;;;5.00;3.20;;;24.20;99.90;;;;;;4958848;28;20180;-66
2022/06/24 07:16:24;;;;;;;4.17;2.97;;;24.50;99.90;;;;;;4956957;28;20611;-68
2022/06/24 07:18:49;;;;;;;6.23;5.47;;;24.70;99.90;;;;;;4969929;28;20188;-66
2022/06/24 07:21:15;;;;;;;6.67;3.97;;;25.30;99.90;;;;;;4975948;28;20554;-65
2022/06/24 07:23:40;;;;;;;3.33;2.97;;;25.30;99.90;;;;;;4968178;28;20586;-67
2022/06/24 07:26:06;;;;;;;3.03;2.30;;;24.80;99.90;;;;;;4983953;28;20545;-66
2022/06/24 07:28:34;;;;;;;2.70;2.30;;;24.70;99.90;;;;;;4978079;28;20188;-66
2022/06/24 07:30:59;;;;;;;4.20;3.80;;;24.70;99.90;;;;;;4972564;28;20215;-65
2022/06/24 07:33:25;;;;;;;3.67;2.80;;;24.30;99.90;;;;;;4970479;28;20455;-64
2022/06/24 07:35:50;;;;;;;6.53;3.53;;;24.00;99.90;;;;;;4979250;28;20223;-63
2022/06/24 07:38:16;;;;;;;6.63;3.27;;;23.70;99.90;;;;;;4981887;28;20188;-65
2022/06/24 07:40:42;;;;;;;4.23;3.27;;;23.70;99.90;;;;;;4977963;28;20184;-64
2022/06/24 07:43:07;;;;;;;4.57;3.40;;;23.70;99.90;;;;;;4971221;28;20191;-65
2022/06/24 07:45:33;;;;;;;6.40;3.57;;;23.70;99.90;;;;;;4965703;28;20255;-66
2022/06/24 07:47:59;;;;;;;6.03;3.10;;;24.00;99.90;;;;;;4974366;28;21814;-66
2022/06/24 07:50:25;;;;;;;5.03;2.93;;;24.30;99.90;;;;;;4970570;28;20463;-65
2022/06/24 07:52:52;;;;;;;4.90;3.47;;;24.90;99.90;;;;;;4969920;28;20199;-64
2022/06/24 07:58:02;;;;;;;3.90;2.90;;;25.50;99.90;;;;;;4971431;28;20446;-65
2022/06/24 08:00:27;;;;;;;2.50;2.30;;;25.90;99.90;;;;;;4968148;28;20436;-64
2022/06/24 08:02:53;;;;;;;3.77;3.00;;;25.90;99.90;;;;;;4968737;28;20196;-65
2022/06/24 08:05:18;;;;;;;3.03;2.40;;;26.20;99.90;;;;;;4972313;28;20204;-65
2022/06/24 08:07:44;;;;;;;3.67;3.40;;;26.60;99.90;;;;;;4974006;28;20184;-64
2022/06/24 08:10:10;;;;;;;5.70;2.40;;;26.70;99.90;;;;;;4970432;28;20175;-66
2022/06/24 08:12:35;;;;;;;2.40;2.20;;;26.60;99.90;;;;;;4968022;28;20243;-65
2022/06/24 08:15:01;;;;;;;3.17;2.87;;;26.70;99.90;;;;;;4971041;28;20187;-67
2022/06/24 08:17:27;;;;;;;2.50;2.30;;;26.50;99.90;;;;;;4973503;28;20553;-64
2022/06/24 08:19:53;;;;;;;4.30;2.13;;;26.40;99.90;;;;;;4970853;28;20310;-67
2022/06/24 08:22:19;;;;;;;3.40;2.70;;;26.50;99.90;;;;;;4968104;28;20184;-66
2022/06/24 08:24:44;;;;;;;3.27;2.80;;;26.80;99.90;;;;;;4969428;28;20188;-65
2022/06/24 08:27:10;;;;;;;2.93;2.60;;;27.30;99.90;;;;;;4970844;28;20583;-65
2022/06/24 08:29:35;;;;;;;4.40;2.67;;;27.80;99.90;;;;;;4968691;28;20634;-64
2022/06/24 08:32:01;;;;;;;5.27;2.63;;;27.90;99.90;;;;;;4967574;28;20220;-65
2022/06/24 08:34:26;;;;;;;3.90;2.70;;;27.90;99.90;;;;;;4973008;28;20242;-66
2022/06/24 08:36:52;;;;;;;3.03;2.50;;;27.90;99.90;;;;;;4973188;28;20208;-65
2022/06/24 08:39:17;;;;;;;5.50;2.47;;;27.80;99.90;;;;;;4977650;28;20626;-66
2022/06/24 08:41:46;;;;;;;2.77;2.57;;;27.60;99.90;;;;;;4971883;28;20203;-66
2022/06/24 08:44:12;;;;;;;3.70;2.80;;;27.40;99.90;;;;;;4972681;28;20203;-66
2022/06/24 08:46:40;;;;;;;4.60;2.43;;;27.40;99.90;;;;;;4972505;28;20487;-65
2022/06/24 08:49:06;;;;;;;4.00;2.53;;;27.60;99.90;;;;;;4965943;28;20451;-67
2022/06/24 08:51:34;;;;;;;2.97;2.60;;;27.20;99.90;;;;;;4974477;28;20482;-66
2022/06/24 08:54:02;;;;;;;2.50;2.30;;;27.00;99.90;;;;;;4974194;28;20184;-65
2022/06/24 08:56:28;;;;;;;2.93;2.30;;;26.70;99.90;;;;;;4988720;28;20459;-66
2022/06/24 08:58:55;;;;;;;5.13;2.37;;;26.70;99.90;;;;;;4974161;28;20442;-64
2022/06/24 09:01:20;;;;;;;3.30;2.07;;;27.10;99.90;;;;;;4977034;28;20446;-65
2022/06/24 09:03:48;;;;;;;2.40;1.77;;;27.40;99.90;;;;;;4973903;28;20446;-64
2022/06/24 09:06:15;;;;;;;2.17;1.97;;;28.20;99.70;;;;;;4975058;28;20215;-65
2022/06/24 09:08:46;;;;;;;3.30;2.40;;;28.70;98.80;;;;;;4970671;28;20511;-64
2022/06/24 09:11:12;;;;;;;2.17;2.07;;;29.00;96.60;;;;;;4973552;28;20549;-64
2022/06/24 09:13:49;;;;;;;2.57;2.37;;;28.80;95.80;;;;;;4970210;28;20538;-65
2022/06/24 09:16:17;;;;;;;2.47;2.07;;;28.10;95.80;;;;;;4974122;28;20211;-67
2022/06/24 09:18:53;;;;;;;1.87;1.60;;;27.90;96.20;;;;;;4972045;28;20494;-66
2022/06/24 09:21:30;;;;;;;2.30;2.10;;;27.50;96.70;;;;;;4973744;28;20509;-70
2022/06/24 09:24:00;;;;;;;3.50;2.60;;;28.10;97.00;;;;;;4971015;28;20447;-66
2022/06/24 09:26:40;;;;;;;6.10;2.87;;;29.10;96.20;;;;;;4975856;28;20518;-65
2022/06/24 09:29:11;;;;;;;2.37;2.17;;;29.00;95.40;;;;;;4973979;28;20450;-67
2022/06/24 09:31:38;;;;;;;2.30;2.20;;;28.70;95.00;;;;;;4969185;28;21097;-66
2022/06/24 09:34:09;;;;;;;3.30;2.47;;;28.80;95.00;;;;;;4978584;28;20929;-64
2022/06/24 09:36:36;;;;;;;2.70;2.50;;;29.20;95.60;;;;;;4976696;28;20463;-67
2022/06/24 09:39:07;;;;;;;3.03;2.53;;;29.60;95.50;;;;;;4972470;28;20486;-64
2022/06/24 09:41:44;;;;;;;3.70;2.30;;;29.80;93.80;;;;;;4972150;28;20450;-67
2022/06/24 09:44:10;;;;;;;3.37;3.07;;;29.50;93.50;;;;;;4977717;28;20475;-66
2022/06/24 09:46:36;;;;;;;2.23;1.97;;;29.60;93.10;;;;;;4973165;28;20821;-65
2022/06/24 09:49:07;;;;;;;7.30;2.50;;;29.80;92.10;;;;;;4975970;28;20459;-64
2022/06/24 09:51:33;;;;;;;2.87;2.67;;;30.00;92.20;;;;;;4969121;28;20323;-68
2022/06/24 09:53:59;;;;;;;6.03;3.70;;;30.20;91.50;;;;;;4976431;28;20458;-66
2022/06/24 09:56:26;;;;;;;3.53;2.67;;;29.90;92.60;;;;;;4973192;28;20980;-65
2022/06/24 10:01:38;;;;;;;5.87;2.43;;;30.40;91.60;;;;;;4967817;28;22451;-66
2022/06/24 10:04:05;;;;;;;2.70;2.27;;;31.70;89.90;;;;;;4968147;28;20462;-67
2022/06/24 10:06:36;;;;;;;3.30;3.10;;;32.20;86.00;;;;;;4969681;28;20463;-67
2022/06/24 10:09:04;;;;;;;2.10;1.90;;;32.60;83.90;;;;;;4971041;28;20454;-67
2022/06/24 10:11:33;;;;;;;5.07;3.07;;;33.10;80.50;;;;;;4965807;28;20474;-71
2022/06/24 10:14:00;;;;;;;4.67;2.57;;;32.30;80.80;;;;;;4982303;28;20525;-66
2022/06/24 10:16:26;;;;;;;2.70;2.47;;;31.70;82.70;;;;;;4981623;28;20809;-64
2022/06/24 10:18:52;;;;;;;3.60;2.90;;;31.00;83.90;;;;;;4979188;28;20534;-66
2022/06/24 10:21:19;;;;;;;5.10;3.40;;;30.20;86.70;;;;;;4973483;28;20212;-70
2022/06/24 10:23:47;;;;;;;4.30;2.43;;;30.20;88.00;;;;;;4967540;28;20882;-65
2022/06/24 10:26:16;;;;;;;3.00;2.27;;;30.30;86.50;;;;;;4978124;28;20455;-66
2022/06/24 10:29:03;;;;;;;4.17;2.60;;;29.70;86.80;;;;;;4966248;28;20443;-67
2022/06/24 10:31:44;;;;;;;3.00;2.80;;;29.50;88.60;;;;;;4967569;28;20478;-68
2022/06/24 10:34:11;;;;;;;3.40;2.80;;;29.80;88.50;;;;;;4964507;28;20435;-67
2022/06/24 10:36:36;;;;;;;5.47;4.97;;;29.90;87.70;;;;;;4971616;28;20460;-68
2022/06/24 10:39:15;;;;;;;4.23;3.93;;;29.70;87.50;;;;;;4971678;28;20454;-66
2022/06/24 10:41:42;;;;;;;6.20;3.60;;;29.90;88.60;;;;;;4965573;28;20172;-67
2022/06/24 10:44:27;;;;;;;2.20;2.07;;;30.20;87.30;;;;;;4975818;28;20811;-67
2022/06/24 10:47:05;;;;;;;3.00;2.37;;;30.40;86.40;;;;;;4970512;28;20483;-66
2022/06/24 10:52:41;;;;;;;2.90;2.70;;;30.50;86.10;;;;;;4965754;28;20831;-67
2022/06/24 10:55:28;;;;;;;2.77;2.57;;;30.30;85.70;;;;;;4975485;28;20550;-66
2022/06/24 10:58:09;;;;;;;3.27;2.90;;;30.10;86.30;;;;;;4970076;28;20434;-66
2022/06/24 11:00:37;;;;;;;3.43;3.13;;;29.40;90.40;;;;;;4971740;28;20439;-72
2022/06/24 11:03:02;;;;;;;3.70;3.07;;;28.70;92.00;;;;;;4969131;28;20444;-67
2022/06/24 11:05:33;;;;;;;4.53;3.87;;;28.10;93.10;;;;;;4977028;28;20824;-66
2022/06/24 11:08:00;;;;;;;4.20;3.23;;;28.10;93.90;;;;;;4968681;28;20274;-66
2022/06/24 11:10:30;;;;;;;4.70;3.50;;;28.20;93.90;;;;;;4970034;28;20444;-66
2022/06/24 11:12:59;;;;;;;3.47;3.17;;;28.20;94.20;;;;;;4968741;28;20781;-67
2022/06/24 11:15:41;;;;;;;3.27;2.93;;;28.10;93.80;;;;;;4980349;28;20551;-66
2022/06/24 11:18:06;;;;;;;3.70;3.40;;;28.20;94.30;;;;;;4982098;28;21032;-65
2022/06/24 11:20:36;;;;;;;3.43;2.80;;;28.30;94.10;;;;;;4975562;28;20522;-67
2022/06/24 11:23:09;;;;;;;3.00;2.80;;;28.50;93.90;;;;;;4965201;28;20192;-66
2022/06/24 11:25:37;;;;;;;3.40;3.10;;;28.30;94.20;;;;;;4979231;28;20466;-68
2022/06/24 11:28:03;;;;;;;3.17;2.77;;;28.20;95.00;;;;;;4969787;28;22200;-68
2022/06/24 11:30:28;;;;;;;3.70;3.40;;;27.90;95.50;;;;;;4975990;28;20509;-66
2022/06/24 11:32:57;;;;;;;3.93;2.93;;;28.10;95.90;;;;;;4980358;28;20231;-64
2022/06/24 11:35:24;;;;;;;4.17;3.77;;;28.20;96.10;;;;;;4982778;28;20286;-65
2022/06/24 11:37:49;;;;;;;4.90;3.43;;;27.80;96.50;;;;;;4982040;28;20439;-66
2022/06/24 11:40:23;;;;;;;6.63;3.87;;;27.70;96.70;;;;;;4977511;28;20447;-67
2022/06/24 11:42:49;;;;;;;3.90;3.60;;;27.50;97.40;;;;;;4979201;28;20234;-66
2022/06/24 11:45:15;;;;;;;5.80;3.13;;;27.40;97.20;;;;;;4978273;28;20519;-68
2022/06/24 11:47:46;;;;;;;5.80;5.30;;;27.40;97.50;;;;;;4968169;28;20176;-68
2022/06/24 11:50:19;;;;;;;4.73;3.80;;;27.50;97.40;;;;;;4969425;28;21011;-66
2022/06/24 11:52:46;;;;;;;4.63;3.07;;;28.00;97.00;;;;;;4974393;28;20444;-66
2022/06/24 11:55:32;;;;;;;4.80;3.77;;;28.10;96.70;;;;;;4970266;28;20498;-69
2022/06/24 11:57:59;;;;;;;5.50;2.90;;;28.30;95.40;;;;;;4972429;28;20853;-68
2022/06/24 12:00:33;;;;;;;4.83;3.20;;;28.10;94.90;;;;;;4969103;28;21020;-68
2022/06/24 12:03:00;;;;;;;4.20;3.80;;;28.10;94.70;;;;;;4968601;28;20454;-68
2022/06/24 12:05:28;;;;;;;2.40;2.30;;;28.40;94.40;;;;;;4972161;28;20502;-69
2022/06/24 12:07:55;;;;;;;3.47;3.10;;;29.40;93.70;;;;;;4970972;28;20435;-69
2022/06/24 12:10:21;;;;;;;4.17;3.10;;;31.20;91.20;;;;;;4969698;28;20921;-69
2022/06/24 12:12:56;;;;;;;3.40;3.10;;;32.10;88.50;;;;;;4970982;28;20534;-68
2022/06/24 12:15:27;;;;;;;3.83;2.73;;;33.70;84.40;;;;;;4971426;28;20188;-69
2022/06/24 12:17:55;;;;;;;3.23;2.70;;;33.90;79.80;;;;;;4971872;28;20435;-68
2022/06/24 12:20:23;;;;;;;4.80;2.33;;;33.70;79.30;;;;;;4968365;28;20448;-69
2022/06/24 12:23:17;;;;;;;4.00;2.60;;;33.30;79.20;;;;;;4967735;28;20452;-68
2022/06/24 12:25:45;;;;;;;4.60;2.77;;;32.40;78.50;;;;;;4970965;28;20895;-68
2022/06/24 12:28:16;;;;;;;7.20;3.00;;;32.30;78.90;;;;;;4972421;28;20523;-69
2022/06/24 12:30:41;;;;;;;2.80;2.60;;;31.40;80.20;;;;;;4970454;28;20463;-68
2022/06/24 12:33:14;;;;;;;2.93;2.53;;;30.80;81.20;;;;;;4970801;28;20968;-69
2022/06/24 12:35:43;;;;;;;2.93;2.73;;;30.00;83.50;;;;;;4969157;28;20196;-69
2022/06/24 12:38:13;;;;;;;3.80;2.80;;;29.40;87.30;;;;;;4968401;28;20434;-69
2022/06/24 12:40:40;;;;;;;9.27;8.50;;;28.40;91.30;;;;;;4970778;28;20451;-68
2022/06/24 12:43:12;;;;;;;4.50;4.10;;;27.50;97.60;;;;;;4970514;28;20432;-68
2022/06/24 12:45:40;;;;;;;3.37;3.07;;;26.50;99.90;;;;;;4986972;23;20463;-69
2022/06/24 12:51:05;;;;;;;9.60;4.63;;;25.40;99.90;;;;;;4970870;28;20570;-69
2022/06/24 12:53:31;;;;;;;4.90;3.83;;;25.20;99.90;;;;;;4971131;28;20443;-69
2022/06/24 12:56:00;;;;;;;8.47;6.30;;;25.10;99.90;;;;;;4970004;28;20562;-71
2022/06/24 12:58:26;;;;;;;6.00;4.30;;;24.70;99.90;;;;;;4968605;28;20778;-69
2022/06/24 13:00:52;;;;;;;7.40;4.73;;;24.20;99.90;;;;;;4974081;28;20502;-70
2022/06/24 13:03:20;;;;;;;6.07;4.40;;;23.60;99.90;;;;;;4971962;28;20188;-68
2022/06/24 13:05:45;;;;;;;8.10;4.67;;;23.20;99.90;;;;;;4968941;28;20206;-68